sensor_id;sensor_type;location;lat;lon;timestamp;P1;durP1;ratioP1;P2;durP2;ratioP2
61675;SDS011;47574;52.090;5.244;2023-06-14T00:01:18;5.8;;;2.8;;
61675;SDS011;47574;52.090;5.244;2023-06-14T00:02:54;10.3;;;3.0;;
61675;SDS011;47574;52.090;5.244;2023-06-14T00:04:31;5.2;;;2.6;;
61675;SDS011;47574;52.090;5.244;2023-06-14T00:07:43;6.3;;;3.0;;
61675;SDS011;47574;52.090;5.244;2023-06-14T00:09:19;7.6;;;2.8;;
61675;SDS011;47574;52.090;5.244;2023-06-14T00:10:55;4.5;;;2.5;;
61675;SDS011;47574;52.090;5.244;2023-06-14T00:14:07;7.2;;;2.8;;
61675;SDS011;47574;52.090;5.244;2023-06-14T00:15:44;6.6;;;2.9;;
61675;SDS011;47574;52.090;5.244;2023-06-14T00:17:21;5.4;;;2.5;;
61675;SDS011;47574;52.090;5.244;2023-06-14T00:18:57;10.9;;;2.7;;
61675;SDS011;47574;52.090;5.244;2023-06-14T00:22:09;4.61;;;2.5;;
61675;SDS011;47574;52.090;5.244;2023-06-14T00:23:45;8.31;;;2.6;;
61675;SDS011;47574;52.090;5.244;2023-06-14T00:25:22;5.4;;;2.9;;
61675;SDS011;47574;52.090;5.244;2023-06-14T00:28:35;8.1;;;2.8;;
61675;SDS011;47574;52.090;5.244;2023-06-14T00:30:11;6.7;;;2.6;;
61675;SDS011;47574;52.090;5.244;2023-06-14T00:31:48;5.2;;;2.5;;
61675;SDS011;47574;52.090;5.244;2023-06-14T00:35:00;6.3;;;2.4;;
61675;SDS011;47574;52.090;5.244;2023-06-14T00:36:36;5.2;;;3.0;;
61675;SDS011;47574;52.090;5.244;2023-06-14T00:38:13;7.4;;;2.8;;
61675;SDS011;47574;52.090;5.244;2023-06-14T00:39:49;4.7;;;2.6;;
61675;SDS011;47574;52.090;5.244;2023-06-14T00:43:01;7.2;;;2.6;;
61675;SDS011;47574;52.090;5.244;2023-06-14T00:44:37;6.9;;;3.1;;
61675;SDS011;47574;52.090;5.244;2023-06-14T00:46:13;7.5;;;3.1;;
61675;SDS011;47574;52.090;5.244;2023-06-14T00:49:28;6.5;;;2.7;;
61675;SDS011;47574;52.090;5.244;2023-06-14T00:51:05;4.0;;;2.9;;
61675;SDS011;47574;52.090;5.244;2023-06-14T00:52:42;7.1;;;2.6;;
61675;SDS011;47574;52.090;5.244;2023-06-14T00:55:54;9.21;;;2.7;;
61675;SDS011;47574;52.090;5.244;2023-06-14T00:57:30;9.0;;;2.6;;
61675;SDS011;47574;52.090;5.244;2023-06-14T00:59:07;6.5;;;2.9;;
61675;SDS011;47574;52.090;5.244;2023-06-14T01:00:43;6.4;;;2.5;;
61675;SDS011;47574;52.090;5.244;2023-06-14T01:03:55;9.21;;;2.8;;
61675;SDS011;47574;52.090;5.244;2023-06-14T01:05:31;5.3;;;2.9;;
61675;SDS011;47574;52.090;5.244;2023-06-14T01:07:10;5.2;;;2.6;;
61675;SDS011;47574;52.090;5.244;2023-06-14T01:10:45;8.2;;;2.6;;
61675;SDS011;47574;52.090;5.244;2023-06-14T01:12:39;9.5;;;2.9;;
61675;SDS011;47574;52.090;5.244;2023-06-14T01:14:24;6.4;;;2.8;;
61675;SDS011;47574;52.090;5.244;2023-06-14T01:16:03;8.1;;;2.8;;
61675;SDS011;47574;52.090;5.244;2023-06-14T01:17:42;9.31;;;2.31;;
61675;SDS011;47574;52.090;5.244;2023-06-14T01:20:58;10.0;;;2.8;;
61675;SDS011;47574;52.090;5.244;2023-06-14T01:22:35;6.6;;;2.4;;
61675;SDS011;47574;52.090;5.244;2023-06-14T01:24:11;10.0;;;2.7;;
61675;SDS011;47574;52.090;5.244;2023-06-14T01:27:24;9.31;;;2.9;;
61675;SDS011;47574;52.090;5.244;2023-06-14T01:29:01;5.11;;;2.6;;
61675;SDS011;47574;52.090;5.244;2023-06-14T01:30:38;6.4;;;2.31;;
61675;SDS011;47574;52.090;5.244;2023-06-14T01:32:16;6.3;;;2.7;;
61675;SDS011;47574;52.090;5.244;2023-06-14T01:35:29;7.9;;;3.2;;
61675;SDS011;47574;52.090;5.244;2023-06-14T01:37:05;5.4;;;2.6;;
61675;SDS011;47574;52.090;5.244;2023-06-14T01:38:43;6.6;;;2.5;;
61675;SDS011;47574;52.090;5.244;2023-06-14T01:41:57;3.8;;;2.6;;
61675;SDS011;47574;52.090;5.244;2023-06-14T01:43:35;9.71;;;2.8;;
61675;SDS011;47574;52.090;5.244;2023-06-14T01:45:11;5.8;;;2.5;;
61675;SDS011;47574;52.090;5.244;2023-06-14T01:46:47;11.7;;;2.5;;
61675;SDS011;47574;52.090;5.244;2023-06-14T01:50:01;8.0;;;2.8;;
61675;SDS011;47574;52.090;5.244;2023-06-14T01:51:38;6.6;;;2.6;;
61675;SDS011;47574;52.090;5.244;2023-06-14T01:53:15;4.91;;;2.7;;
61675;SDS011;47574;52.090;5.244;2023-06-14T01:56:28;7.7;;;2.5;;
61675;SDS011;47574;52.090;5.244;2023-06-14T01:58:04;9.1;;;2.7;;
61675;SDS011;47574;52.090;5.244;2023-06-14T01:59:40;8.81;;;2.8;;
61675;SDS011;47574;52.090;5.244;2023-06-14T02:02:52;4.3;;;2.7;;
61675;SDS011;47574;52.090;5.244;2023-06-14T02:04:29;6.8;;;2.7;;
61675;SDS011;47574;52.090;5.244;2023-06-14T02:06:05;8.81;;;2.8;;
61675;SDS011;47574;52.090;5.244;2023-06-14T02:07:41;10.1;;;2.7;;
61675;SDS011;47574;52.090;5.244;2023-06-14T02:10:53;5.8;;;2.4;;
61675;SDS011;47574;52.090;5.244;2023-06-14T02:12:29;5.6;;;2.5;;
61675;SDS011;47574;52.090;5.244;2023-06-14T02:14:05;6.4;;;2.8;;
61675;SDS011;47574;52.090;5.244;2023-06-14T02:17:18;6.3;;;3.1;;
61675;SDS011;47574;52.090;5.244;2023-06-14T02:18:54;4.41;;;2.5;;
61675;SDS011;47574;52.090;5.244;2023-06-14T02:20:30;6.3;;;2.7;;
61675;SDS011;47574;52.090;5.244;2023-06-14T02:23:42;4.61;;;2.6;;
61675;SDS011;47574;52.090;5.244;2023-06-14T02:25:19;3.1;;;2.5;;
61675;SDS011;47574;52.090;5.244;2023-06-14T02:26:55;8.0;;;2.7;;
61675;SDS011;47574;52.090;5.244;2023-06-14T02:30:07;8.4;;;2.5;;
61675;SDS011;47574;52.090;5.244;2023-06-14T02:31:44;7.2;;;2.4;;
61675;SDS011;47574;52.090;5.244;2023-06-14T02:33:21;11.5;;;2.9;;
61675;SDS011;47574;52.090;5.244;2023-06-14T02:34:57;7.2;;;2.5;;
61675;SDS011;47574;52.090;5.244;2023-06-14T02:38:10;5.8;;;2.31;;
61675;SDS011;47574;52.090;5.244;2023-06-14T02:39:46;7.5;;;2.6;;
61675;SDS011;47574;52.090;5.244;2023-06-14T02:41:22;4.8;;;2.5;;
61675;SDS011;47574;52.090;5.244;2023-06-14T02:44:34;5.0;;;2.6;;
61675;SDS011;47574;52.090;5.244;2023-06-14T02:46:10;11.2;;;3.3;;
61675;SDS011;47574;52.090;5.244;2023-06-14T02:47:46;5.8;;;2.9;;
61675;SDS011;47574;52.090;5.244;2023-06-14T02:50:59;7.0;;;2.5;;
61675;SDS011;47574;52.090;5.244;2023-06-14T02:52:35;7.0;;;3.0;;
61675;SDS011;47574;52.090;5.244;2023-06-14T02:54:11;5.11;;;2.21;;
61675;SDS011;47574;52.090;5.244;2023-06-14T02:55:47;5.5;;;2.6;;
61675;SDS011;47574;52.090;5.244;2023-06-14T02:59:00;6.5;;;2.5;;
61675;SDS011;47574;52.090;5.244;2023-06-14T03:00:36;8.81;;;2.5;;
61675;SDS011;47574;52.090;5.244;2023-06-14T03:02:12;3.3;;;2.5;;
61675;SDS011;47574;52.090;5.244;2023-06-14T03:05:24;5.2;;;2.5;;
61675;SDS011;47574;52.090;5.244;2023-06-14T03:07:00;4.7;;;2.5;;
61675;SDS011;47574;52.090;5.244;2023-06-14T03:08:36;8.31;;;2.8;;
61675;SDS011;47574;52.090;5.244;2023-06-14T03:11:49;4.8;;;2.31;;
61675;SDS011;47574;52.090;5.244;2023-06-14T03:13:25;5.3;;;2.5;;
61675;SDS011;47574;52.090;5.244;2023-06-14T03:15:01;7.8;;;2.5;;
61675;SDS011;47574;52.090;5.244;2023-06-14T03:18:14;7.1;;;2.9;;
61675;SDS011;47574;52.090;5.244;2023-06-14T03:19:50;6.3;;;2.6;;
61675;SDS011;47574;52.090;5.244;2023-06-14T03:21:27;8.31;;;2.6;;
61675;SDS011;47574;52.090;5.244;2023-06-14T03:23:03;6.3;;;2.8;;
61675;SDS011;47574;52.090;5.244;2023-06-14T03:26:15;5.7;;;2.31;;
61675;SDS011;47574;52.090;5.244;2023-06-14T03:27:51;6.0;;;2.6;;
61675;SDS011;47574;52.090;5.244;2023-06-14T03:29:27;7.3;;;2.4;;
61675;SDS011;47574;52.090;5.244;2023-06-14T03:32:39;6.4;;;2.31;;
61675;SDS011;47574;52.090;5.244;2023-06-14T03:34:16;5.11;;;2.1;;
61675;SDS011;47574;52.090;5.244;2023-06-14T03:35:52;7.0;;;2.5;;
61675;SDS011;47574;52.090;5.244;2023-06-14T03:39:04;7.4;;;2.8;;
61675;SDS011;47574;52.090;5.244;2023-06-14T03:40:40;5.8;;;2.6;;
61675;SDS011;47574;52.090;5.244;2023-06-14T03:42:16;4.8;;;2.21;;
61675;SDS011;47574;52.090;5.244;2023-06-14T03:43:53;6.6;;;2.4;;
61675;SDS011;47574;52.090;5.244;2023-06-14T03:47:05;7.4;;;2.6;;
61675;SDS011;47574;52.090;5.244;2023-06-14T03:48:41;4.41;;;2.5;;
61675;SDS011;47574;52.090;5.244;2023-06-14T03:50:17;3.7;;;2.5;;
61675;SDS011;47574;52.090;5.244;2023-06-14T03:53:29;5.2;;;2.5;;
61675;SDS011;47574;52.090;5.244;2023-06-14T03:55:06;9.31;;;2.9;;
61675;SDS011;47574;52.090;5.244;2023-06-14T03:56:42;9.21;;;2.31;;
61675;SDS011;47574;52.090;5.244;2023-06-14T03:59:54;7.0;;;2.5;;
61675;SDS011;47574;52.090;5.244;2023-06-14T04:01:30;5.11;;;2.4;;
61675;SDS011;47574;52.090;5.244;2023-06-14T04:03:06;7.3;;;2.5;;
61675;SDS011;47574;52.090;5.244;2023-06-14T04:06:19;3.7;;;2.31;;
61675;SDS011;47574;52.090;5.244;2023-06-14T04:07:55;4.3;;;2.4;;
61675;SDS011;47574;52.090;5.244;2023-06-14T04:09:31;5.2;;;2.31;;
61675;SDS011;47574;52.090;5.244;2023-06-14T04:11:07;6.2;;;2.5;;
61675;SDS011;47574;52.090;5.244;2023-06-14T04:14:19;8.81;;;2.31;;
61675;SDS011;47574;52.090;5.244;2023-06-14T04:15:55;5.3;;;2.21;;
61675;SDS011;47574;52.090;5.244;2023-06-14T04:17:32;8.5;;;2.6;;
61675;SDS011;47574;52.090;5.244;2023-06-14T04:20:44;5.11;;;2.5;;
61675;SDS011;47574;52.090;5.244;2023-06-14T04:22:20;4.3;;;2.31;;
61675;SDS011;47574;52.090;5.244;2023-06-14T04:23:56;5.7;;;2.31;;
61675;SDS011;47574;52.090;5.244;2023-06-14T04:27:08;5.2;;;2.5;;
61675;SDS011;47574;52.090;5.244;2023-06-14T04:28:45;4.5;;;2.4;;
61675;SDS011;47574;52.090;5.244;2023-06-14T04:30:21;4.8;;;2.6;;
61675;SDS011;47574;52.090;5.244;2023-06-14T04:33:33;5.6;;;2.5;;
61675;SDS011;47574;52.090;5.244;2023-06-14T04:35:09;3.9;;;2.7;;
61675;SDS011;47574;52.090;5.244;2023-06-14T04:36:45;8.6;;;2.5;;
61675;SDS011;47574;52.090;5.244;2023-06-14T04:38:21;5.3;;;2.31;;
61675;SDS011;47574;52.090;5.244;2023-06-14T04:41:34;6.9;;;2.6;;
61675;SDS011;47574;52.090;5.244;2023-06-14T04:44:46;10.3;;;2.9;;
61675;SDS011;47574;52.090;5.244;2023-06-14T04:47:58;6.3;;;2.5;;
61675;SDS011;47574;52.090;5.244;2023-06-14T04:49:34;5.3;;;2.8;;
61675;SDS011;47574;52.090;5.244;2023-06-14T04:51:10;3.7;;;2.31;;
61675;SDS011;47574;52.090;5.244;2023-06-14T04:54:23;6.0;;;2.4;;
61675;SDS011;47574;52.090;5.244;2023-06-14T04:55:59;7.1;;;2.7;;
61675;SDS011;47574;52.090;5.244;2023-06-14T04:57:35;7.4;;;2.31;;
61675;SDS011;47574;52.090;5.244;2023-06-14T05:00:47;5.11;;;2.5;;
61675;SDS011;47574;52.090;5.244;2023-06-14T05:02:24;7.7;;;2.9;;
61675;SDS011;47574;52.090;5.244;2023-06-14T05:04:01;9.71;;;2.4;;
61675;SDS011;47574;52.090;5.244;2023-06-14T05:05:37;5.5;;;2.31;;
61675;SDS011;47574;52.090;5.244;2023-06-14T05:08:49;4.5;;;2.7;;
61675;SDS011;47574;52.090;5.244;2023-06-14T05:10:25;6.5;;;2.8;;
61675;SDS011;47574;52.090;5.244;2023-06-14T05:12:01;8.0;;;3.0;;
61675;SDS011;47574;52.090;5.244;2023-06-14T05:15:14;5.7;;;2.6;;
61675;SDS011;47574;52.090;5.244;2023-06-14T05:16:50;6.5;;;3.2;;
61675;SDS011;47574;52.090;5.244;2023-06-14T05:18:26;7.1;;;2.4;;
61675;SDS011;47574;52.090;5.244;2023-06-14T05:21:38;7.1;;;2.6;;
61675;SDS011;47574;52.090;5.244;2023-06-14T05:23:14;8.2;;;3.0;;
61675;SDS011;47574;52.090;5.244;2023-06-14T05:24:50;7.7;;;2.9;;
61675;SDS011;47574;52.090;5.244;2023-06-14T05:26:27;7.6;;;2.6;;
61675;SDS011;47574;52.090;5.244;2023-06-14T05:29:39;9.5;;;2.8;;
61675;SDS011;47574;52.090;5.244;2023-06-14T05:31:15;8.1;;;2.6;;
61675;SDS011;47574;52.090;5.244;2023-06-14T05:32:51;7.3;;;2.5;;
61675;SDS011;47574;52.090;5.244;2023-06-14T05:36:03;7.9;;;2.9;;
61675;SDS011;47574;52.090;5.244;2023-06-14T05:37:39;4.61;;;2.6;;
61675;SDS011;47574;52.090;5.244;2023-06-14T05:39:16;6.3;;;2.4;;
61675;SDS011;47574;52.090;5.244;2023-06-14T05:42:28;7.0;;;2.9;;
61675;SDS011;47574;52.090;5.244;2023-06-14T05:44:04;6.1;;;3.0;;
61675;SDS011;47574;52.090;5.244;2023-06-14T05:45:40;7.6;;;2.7;;
61675;SDS011;47574;52.090;5.244;2023-06-14T05:48:52;7.0;;;2.9;;
61675;SDS011;47574;52.090;5.244;2023-06-14T05:50:31;4.3;;;2.8;;
61675;SDS011;47574;52.090;5.244;2023-06-14T05:52:07;4.7;;;2.5;;
61675;SDS011;47574;52.090;5.244;2023-06-14T05:53:44;7.3;;;2.5;;
61675;SDS011;47574;52.090;5.244;2023-06-14T05:56:56;5.5;;;2.6;;
61675;SDS011;47574;52.090;5.244;2023-06-14T05:58:32;10.6;;;2.8;;
61675;SDS011;47574;52.090;5.244;2023-06-14T06:00:09;8.31;;;2.6;;
61675;SDS011;47574;52.090;5.244;2023-06-14T06:03:22;9.0;;;2.7;;
61675;SDS011;47574;52.090;5.244;2023-06-14T06:04:58;7.3;;;2.7;;
61675;SDS011;47574;52.090;5.244;2023-06-14T06:06:34;9.5;;;3.9;;
61675;SDS011;47574;52.090;5.244;2023-06-14T06:09:46;18.2;;;4.2;;
61675;SDS011;47574;52.090;5.244;2023-06-14T06:11:22;30.4;;;3.1;;
61675;SDS011;47574;52.090;5.244;2023-06-14T06:12:59;4.5;;;2.6;;
61675;SDS011;47574;52.090;5.244;2023-06-14T06:14:35;9.81;;;2.5;;
61675;SDS011;47574;52.090;5.244;2023-06-14T06:17:47;8.2;;;2.6;;
61675;SDS011;47574;52.090;5.244;2023-06-14T06:19:23;5.3;;;2.6;;
61675;SDS011;47574;52.090;5.244;2023-06-14T06:20:59;9.0;;;2.5;;
61675;SDS011;47574;52.090;5.244;2023-06-14T06:24:11;5.9;;;2.5;;
61675;SDS011;47574;52.090;5.244;2023-06-14T06:25:48;4.5;;;2.5;;
61675;SDS011;47574;52.090;5.244;2023-06-14T06:27:24;7.6;;;2.5;;
61675;SDS011;47574;52.090;5.244;2023-06-14T06:30:36;8.1;;;2.9;;
61675;SDS011;47574;52.090;5.244;2023-06-14T06:32:12;5.11;;;2.31;;
61675;SDS011;47574;52.090;5.244;2023-06-14T06:33:48;8.81;;;2.5;;
61675;SDS011;47574;52.090;5.244;2023-06-14T06:37:01;5.3;;;3.5;;
61675;SDS011;47574;52.090;5.244;2023-06-14T06:38:38;7.8;;;2.4;;
61675;SDS011;47574;52.090;5.244;2023-06-14T06:40:14;9.21;;;2.8;;
61675;SDS011;47574;52.090;5.244;2023-06-14T06:41:50;6.2;;;2.5;;
61675;SDS011;47574;52.090;5.244;2023-06-14T06:45:02;6.2;;;2.31;;
61675;SDS011;47574;52.090;5.244;2023-06-14T06:46:39;4.8;;;2.6;;
61675;SDS011;47574;52.090;5.244;2023-06-14T06:48:15;5.11;;;2.7;;
61675;SDS011;47574;52.090;5.244;2023-06-14T06:51:28;3.2;;;2.6;;
61675;SDS011;47574;52.090;5.244;2023-06-14T06:53:04;3.7;;;2.5;;
61675;SDS011;47574;52.090;5.244;2023-06-14T06:54:40;3.5;;;2.5;;
61675;SDS011;47574;52.090;5.244;2023-06-14T06:57:52;5.3;;;2.6;;
61675;SDS011;47574;52.090;5.244;2023-06-14T06:59:28;3.6;;;2.7;;
61675;SDS011;47574;52.090;5.244;2023-06-14T07:01:05;6.2;;;2.6;;
61675;SDS011;47574;52.090;5.244;2023-06-14T07:02:41;5.0;;;2.5;;
61675;SDS011;47574;52.090;5.244;2023-06-14T07:05:53;6.6;;;2.31;;
61675;SDS011;47574;52.090;5.244;2023-06-14T07:07:29;5.7;;;2.4;;
61675;SDS011;47574;52.090;5.244;2023-06-14T07:09:05;12.4;;;2.8;;
61675;SDS011;47574;52.090;5.244;2023-06-14T07:12:18;5.11;;;2.5;;
61675;SDS011;47574;52.090;5.244;2023-06-14T07:13:54;6.8;;;2.7;;
61675;SDS011;47574;52.090;5.244;2023-06-14T07:15:30;8.2;;;2.8;;
61675;SDS011;47574;52.090;5.244;2023-06-14T07:18:42;5.11;;;2.8;;
61675;SDS011;47574;52.090;5.244;2023-06-14T07:20:18;4.91;;;2.5;;
61675;SDS011;47574;52.090;5.244;2023-06-14T07:21:54;4.2;;;2.31;;
61675;SDS011;47574;52.090;5.244;2023-06-14T07:25:07;5.9;;;2.6;;
61675;SDS011;47574;52.090;5.244;2023-06-14T07:26:44;3.7;;;2.6;;
61675;SDS011;47574;52.090;5.244;2023-06-14T07:28:20;8.0;;;3.0;;
61675;SDS011;47574;52.090;5.244;2023-06-14T07:29:56;4.0;;;2.4;;
61675;SDS011;47574;52.090;5.244;2023-06-14T07:33:08;5.6;;;2.6;;
61675;SDS011;47574;52.090;5.244;2023-06-14T07:34:44;5.9;;;2.21;;
61675;SDS011;47574;52.090;5.244;2023-06-14T07:36:21;5.4;;;2.8;;
61675;SDS011;47574;52.090;5.244;2023-06-14T07:39:34;4.3;;;2.5;;
61675;SDS011;47574;52.090;5.244;2023-06-14T07:41:10;5.2;;;2.4;;
61675;SDS011;47574;52.090;5.244;2023-06-14T07:42:46;4.5;;;2.21;;
61675;SDS011;47574;52.090;5.244;2023-06-14T07:45:58;7.5;;;2.21;;
61675;SDS011;47574;52.090;5.244;2023-06-14T07:47:35;4.7;;;2.7;;
61675;SDS011;47574;52.090;5.244;2023-06-14T07:49:11;5.8;;;2.6;;
61675;SDS011;47574;52.090;5.244;2023-06-14T07:50:47;4.1;;;2.7;;
61675;SDS011;47574;52.090;5.244;2023-06-14T07:53:59;8.2;;;3.1;;
61675;SDS011;47574;52.090;5.244;2023-06-14T07:55:35;4.0;;;2.4;;
61675;SDS011;47574;52.090;5.244;2023-06-14T07:57:11;5.8;;;2.8;;
61675;SDS011;47574;52.090;5.244;2023-06-14T08:00:24;5.0;;;2.5;;
61675;SDS011;47574;52.090;5.244;2023-06-14T08:02:00;18.2;;;2.4;;
61675;SDS011;47574;52.090;5.244;2023-06-14T08:03:36;5.9;;;2.1;;
61675;SDS011;47574;52.090;5.244;2023-06-14T08:06:49;9.81;;;2.6;;
61675;SDS011;47574;52.090;5.244;2023-06-14T08:08:25;17.41;;;2.8;;
61675;SDS011;47574;52.090;5.244;2023-06-14T08:10:01;8.6;;;2.1;;
61675;SDS011;47574;52.090;5.244;2023-06-14T08:13:13;7.6;;;2.1;;
61675;SDS011;47574;52.090;5.244;2023-06-14T08:14:50;32.0;;;3.7;;
61675;SDS011;47574;52.090;5.244;2023-06-14T08:16:26;10.4;;;2.6;;
61675;SDS011;47574;52.090;5.244;2023-06-14T08:18:02;6.2;;;1.9;;
61675;SDS011;47574;52.090;5.244;2023-06-14T08:21:14;7.7;;;1.8;;
61675;SDS011;47574;52.090;5.244;2023-06-14T08:22:50;6.2;;;2.4;;
61675;SDS011;47574;52.090;5.244;2023-06-14T08:24:26;4.61;;;1.8;;
61675;SDS011;47574;52.090;5.244;2023-06-14T08:27:40;6.1;;;1.8;;
61675;SDS011;47574;52.090;5.244;2023-06-14T08:29:16;6.1;;;2.1;;
61675;SDS011;47574;52.090;5.244;2023-06-14T08:30:52;6.1;;;2.0;;
61675;SDS011;47574;52.090;5.244;2023-06-14T08:34:04;6.6;;;1.9;;
61675;SDS011;47574;52.090;5.244;2023-06-14T08:35:40;3.3;;;1.5;;
61675;SDS011;47574;52.090;5.244;2023-06-14T08:37:16;4.8;;;1.7;;
61675;SDS011;47574;52.090;5.244;2023-06-14T08:38:53;3.8;;;1.6;;
61675;SDS011;47574;52.090;5.244;2023-06-14T08:42:07;2.31;;;1.6;;
61675;SDS011;47574;52.090;5.244;2023-06-14T08:43:45;4.2;;;1.8;;
61675;SDS011;47574;52.090;5.244;2023-06-14T08:45:23;2.21;;;1.6;;
61675;SDS011;47574;52.090;5.244;2023-06-14T08:48:37;5.7;;;1.6;;
61675;SDS011;47574;52.090;5.244;2023-06-14T08:50:14;2.4;;;1.8;;
61675;SDS011;47574;52.090;5.244;2023-06-14T08:51:51;2.4;;;1.5;;
61675;SDS011;47574;52.090;5.244;2023-06-14T08:53:34;3.7;;;1.6;;
61675;SDS011;47574;52.090;5.244;2023-06-14T08:56:50;6.7;;;1.5;;
61675;SDS011;47574;52.090;5.244;2023-06-14T08:58:26;7.1;;;1.4;;
61675;SDS011;47574;52.090;5.244;2023-06-14T09:00:04;1.7;;;1.3;;
61675;SDS011;47574;52.090;5.244;2023-06-14T09:03:17;3.5;;;1.5;;
61675;SDS011;47574;52.090;5.244;2023-06-14T09:04:54;2.9;;;1.4;;
61675;SDS011;47574;52.090;5.244;2023-06-14T09:06:30;2.21;;;1.3;;
61675;SDS011;47574;52.090;5.244;2023-06-14T09:09:42;2.8;;;1.4;;
61675;SDS011;47574;52.090;5.244;2023-06-14T09:11:19;3.1;;;1.3;;
61675;SDS011;47574;52.090;5.244;2023-06-14T09:12:55;2.8;;;1.4;;
61675;SDS011;47574;52.090;5.244;2023-06-14T09:14:33;5.0;;;1.7;;
61675;SDS011;47574;52.090;5.244;2023-06-14T09:17:45;1.8;;;1.4;;
61675;SDS011;47574;52.090;5.244;2023-06-14T09:19:23;3.3;;;1.5;;
61675;SDS011;47574;52.090;5.244;2023-06-14T09:20:59;5.5;;;1.4;;
61675;SDS011;47574;52.090;5.244;2023-06-14T09:24:13;2.7;;;1.6;;
61675;SDS011;47574;52.090;5.244;2023-06-14T09:25:50;2.8;;;1.8;;
61675;SDS011;47574;52.090;5.244;2023-06-14T09:27:26;2.7;;;1.4;;
61675;SDS011;47574;52.090;5.244;2023-06-14T09:30:41;6.3;;;1.6;;
61675;SDS011;47574;52.090;5.244;2023-06-14T09:32:17;2.8;;;1.5;;
61675;SDS011;47574;52.090;5.244;2023-06-14T09:33:53;4.2;;;1.5;;
61675;SDS011;47574;52.090;5.244;2023-06-14T09:35:30;3.4;;;1.3;;
61675;SDS011;47574;52.090;5.244;2023-06-14T09:38:46;3.5;;;1.6;;
61675;SDS011;47574;52.090;5.244;2023-06-14T09:40:28;3.8;;;1.11;;
61675;SDS011;47574;52.090;5.244;2023-06-14T09:42:15;3.0;;;1.6;;
61675;SDS011;47574;52.090;5.244;2023-06-14T09:43:52;2.7;;;1.0;;
61675;SDS011;47574;52.090;5.244;2023-06-14T09:47:05;4.2;;;1.7;;
61675;SDS011;47574;52.090;5.244;2023-06-14T09:48:41;4.7;;;1.7;;
61675;SDS011;47574;52.090;5.244;2023-06-14T09:50:18;3.9;;;1.2;;
61675;SDS011;47574;52.090;5.244;2023-06-14T09:53:33;3.1;;;1.6;;
61675;SDS011;47574;52.090;5.244;2023-06-14T09:55:12;3.0;;;1.2;;
61675;SDS011;47574;52.090;5.244;2023-06-14T09:56:49;2.4;;;1.2;;
61675;SDS011;47574;52.090;5.244;2023-06-14T09:58:28;2.9;;;1.11;;
61675;SDS011;47574;52.090;5.244;2023-06-14T10:01:43;3.0;;;1.3;;
61675;SDS011;47574;52.090;5.244;2023-06-14T10:03:21;1.6;;;1.3;;
61675;SDS011;47574;52.090;5.244;2023-06-14T10:05:04;1.5;;;1.4;;
61675;SDS011;47574;52.090;5.244;2023-06-14T10:08:23;3.9;;;1.3;;
61675;SDS011;47574;52.090;5.244;2023-06-14T10:10:02;3.9;;;1.3;;
61675;SDS011;47574;52.090;5.244;2023-06-14T10:11:39;4.3;;;1.3;;
61675;SDS011;47574;52.090;5.244;2023-06-14T10:13:16;1.5;;;1.4;;
61675;SDS011;47574;52.090;5.244;2023-06-14T10:16:32;2.6;;;1.3;;
61675;SDS011;47574;52.090;5.244;2023-06-14T10:18:14;2.31;;;1.4;;
61675;SDS011;47574;52.090;5.244;2023-06-14T10:20:02;4.5;;;1.5;;
61675;SDS011;47574;52.090;5.244;2023-06-14T10:21:55;4.0;;;1.3;;
61675;SDS011;47574;52.090;5.244;2023-06-14T10:23:37;4.3;;;1.3;;
61675;SDS011;47574;52.090;5.244;2023-06-14T10:27:11;2.9;;;1.4;;
61675;SDS011;47574;52.090;5.244;2023-06-14T10:28:58;2.5;;;1.5;;
61675;SDS011;47574;52.090;5.244;2023-06-14T10:30:35;3.6;;;1.6;;
61675;SDS011;47574;52.090;5.244;2023-06-14T10:32:11;10.6;;;1.8;;
61675;SDS011;47574;52.090;5.244;2023-06-14T10:35:26;2.9;;;1.11;;
61675;SDS011;47574;52.090;5.244;2023-06-14T10:37:02;6.6;;;5.9;;
61675;SDS011;47574;52.090;5.244;2023-06-14T10:38:40;3.5;;;1.5;;
61675;SDS011;47574;52.090;5.244;2023-06-14T10:40:29;1.6;;;1.5;;
61675;SDS011;47574;52.090;5.244;2023-06-14T10:43:43;1.7;;;1.4;;
61675;SDS011;47574;52.090;5.244;2023-06-14T10:45:19;1.7;;;1.6;;
61675;SDS011;47574;52.090;5.244;2023-06-14T10:46:57;2.5;;;1.4;;
61675;SDS011;47574;52.090;5.244;2023-06-14T10:51:52;3.1;;;1.3;;
61675;SDS011;47574;52.090;5.244;2023-06-14T10:53:39;2.8;;;1.2;;
61675;SDS011;47574;52.090;5.244;2023-06-14T10:55:16;2.5;;;1.4;;
61675;SDS011;47574;52.090;5.244;2023-06-14T10:58:29;1.8;;;1.0;;
61675;SDS011;47574;52.090;5.244;2023-06-14T11:00:06;1.3;;;1.2;;
61675;SDS011;47574;52.090;5.244;2023-06-14T11:01:47;3.7;;;1.2;;
61675;SDS011;47574;52.090;5.244;2023-06-14T11:03:43;2.7;;;1.3;;
61675;SDS011;47574;52.090;5.244;2023-06-14T11:05:26;2.8;;;1.4;;
61675;SDS011;47574;52.090;5.244;2023-06-14T11:09:09;3.8;;;1.4;;
61675;SDS011;47574;52.090;5.244;2023-06-14T11:12:06;3.1;;;1.2;;
61675;SDS011;47574;52.090;5.244;2023-06-14T11:13:46;2.5;;;1.6;;
61675;SDS011;47574;52.090;5.244;2023-06-14T11:17:04;3.7;;;1.5;;
61675;SDS011;47574;52.090;5.244;2023-06-14T11:18:41;1.4;;;1.3;;
61675;SDS011;47574;52.090;5.244;2023-06-14T11:20:19;3.2;;;1.3;;
61675;SDS011;47574;52.090;5.244;2023-06-14T11:23:31;2.9;;;1.3;;
61675;SDS011;47574;52.090;5.244;2023-06-14T11:25:08;1.7;;;1.4;;
61675;SDS011;47574;52.090;5.244;2023-06-14T11:26:46;2.7;;;1.4;;
61675;SDS011;47574;52.090;5.244;2023-06-14T11:28:23;3.8;;;3.4;;
61675;SDS011;47574;52.090;5.244;2023-06-14T11:31:35;2.9;;;1.4;;
61675;SDS011;47574;52.090;5.244;2023-06-14T11:33:11;2.21;;;1.11;;
61675;SDS011;47574;52.090;5.244;2023-06-14T11:34:52;3.5;;;1.3;;
61675;SDS011;47574;52.090;5.244;2023-06-14T11:38:06;6.5;;;2.21;;
61675;SDS011;47574;52.090;5.244;2023-06-14T11:39:43;8.0;;;2.1;;
61675;SDS011;47574;52.090;5.244;2023-06-14T11:41:20;1.4;;;1.3;;
61675;SDS011;47574;52.090;5.244;2023-06-14T11:43:00;2.5;;;1.2;;
61675;SDS011;47574;52.090;5.244;2023-06-14T11:46:13;2.21;;;1.3;;
61675;SDS011;47574;52.090;5.244;2023-06-14T11:47:50;3.3;;;1.2;;
61675;SDS011;47574;52.090;5.244;2023-06-14T11:49:26;2.21;;;1.3;;
61675;SDS011;47574;52.090;5.244;2023-06-14T11:52:38;3.0;;;1.2;;
61675;SDS011;47574;52.090;5.244;2023-06-14T11:54:15;1.9;;;1.11;;
61675;SDS011;47574;52.090;5.244;2023-06-14T11:55:51;1.4;;;1.2;;
61675;SDS011;47574;52.090;5.244;2023-06-14T11:59:03;2.5;;;1.2;;
61675;SDS011;47574;52.090;5.244;2023-06-14T12:00:39;2.31;;;1.2;;
61675;SDS011;47574;52.090;5.244;2023-06-14T12:02:15;2.9;;;1.2;;
61675;SDS011;47574;52.090;5.244;2023-06-14T12:05:32;1.8;;;1.4;;
61675;SDS011;47574;52.090;5.244;2023-06-14T12:07:09;2.5;;;1.3;;
61675;SDS011;47574;52.090;5.244;2023-06-14T12:08:45;1.8;;;1.3;;
61675;SDS011;47574;52.090;5.244;2023-06-14T12:10:21;2.7;;;1.2;;
61675;SDS011;47574;52.090;5.244;2023-06-14T12:13:37;2.9;;;1.2;;
61675;SDS011;47574;52.090;5.244;2023-06-14T12:15:13;2.9;;;1.5;;
61675;SDS011;47574;52.090;5.244;2023-06-14T12:16:49;1.4;;;1.11;;
61675;SDS011;47574;52.090;5.244;2023-06-14T12:20:11;5.8;;;1.4;;
61675;SDS011;47574;52.090;5.244;2023-06-14T12:21:49;6.4;;;1.5;;
61675;SDS011;47574;52.090;5.244;2023-06-14T12:23:25;1.4;;;1.11;;
61675;SDS011;47574;52.090;5.244;2023-06-14T12:25:01;7.3;;;1.4;;
61675;SDS011;47574;52.090;5.244;2023-06-14T12:28:14;1.4;;;1.3;;
61675;SDS011;47574;52.090;5.244;2023-06-14T12:29:58;3.8;;;1.2;;
61675;SDS011;47574;52.090;5.244;2023-06-14T12:31:35;3.8;;;1.4;;
61675;SDS011;47574;52.090;5.244;2023-06-14T12:33:11;3.7;;;1.2;;
61675;SDS011;47574;52.090;5.244;2023-06-14T12:36:23;7.4;;;1.3;;
61675;SDS011;47574;52.090;5.244;2023-06-14T12:38:00;2.4;;;1.2;;
61675;SDS011;47574;52.090;5.244;2023-06-14T12:39:37;5.5;;;1.4;;
61675;SDS011;47574;52.090;5.244;2023-06-14T12:42:49;3.4;;;1.5;;
61675;SDS011;47574;52.090;5.244;2023-06-14T12:44:25;2.21;;;1.2;;
61675;SDS011;47574;52.090;5.244;2023-06-14T12:46:01;1.7;;;1.6;;
61675;SDS011;47574;52.090;5.244;2023-06-14T12:49:13;1.7;;;1.2;;
61675;SDS011;47574;52.090;5.244;2023-06-14T12:50:49;2.0;;;1.5;;
61675;SDS011;47574;52.090;5.244;2023-06-14T12:52:26;1.3;;;1.2;;
61675;SDS011;47574;52.090;5.244;2023-06-14T12:55:38;3.9;;;1.4;;
61675;SDS011;47574;52.090;5.244;2023-06-14T12:57:14;3.5;;;1.11;;
61675;SDS011;47574;52.090;5.244;2023-06-14T12:58:50;5.6;;;1.7;;
61675;SDS011;47574;52.090;5.244;2023-06-14T13:00:26;4.61;;;1.3;;
61675;SDS011;47574;52.090;5.244;2023-06-14T13:03:49;2.8;;;1.2;;